Time;durP1;ratioP1;P1;durP2;ratioP2;P2;SDS_P1;SDS_P2;PMS_P1;PMS_P2;Temp;Humidity;BMP_temperature;BMP_pressure;BME280_temperature;BME280_humidity;BME280_pressure;Samples;Min_cycle;Max_cycle;Signal;HPM_P1;HPM_P2
2022/04/11 00:02:00;;;;;;;;;;;10.60;49.50;;;;;;4994005;28;19910;-55
2022/04/11 00:04:26;;;;;;;;;;;10.60;49.90;;;;;;4993877;28;20429;-55
2022/04/11 00:06:52;;;;;;;;;;;10.50;50.40;;;;;;4994222;28;19937;-57
2022/04/11 00:09:18;;;;;;;;;;;10.50;50.70;;;;;;4993883;28;19921;-57
2022/04/11 00:11:43;;;;;;;;;;;10.30;51.10;;;;;;4994120;28;19917;-57
2022/04/11 00:14:09;;;;;;;;;;;10.20;52.30;;;;;;4993957;28;19917;-57
2022/04/11 00:16:35;;;;;;;;;;;10.10;53.30;;;;;;4996301;28;20353;-55
2022/04/11 00:19:00;;;;;;;;;;;9.90;53.50;;;;;;4998056;28;19963;-55
2022/04/11 00:21:26;;;;;;;;;;;9.80;54.60;;;;;;4997804;28;20358;-55
2022/04/11 00:23:51;;;;;;;;;;;9.80;55.30;;;;;;4997840;28;19918;-55
2022/04/11 00:26:17;;;;;;;;;;;9.80;54.60;;;;;;4997923;28;19917;-56
2022/04/11 00:28:42;;;;;;;;;;;9.60;55.30;;;;;;4997552;28;20025;-56
2022/04/11 00:31:08;;;;;;;;;;;9.60;55.70;;;;;;4997859;28;19965;-56
2022/04/11 00:33:34;;;;;;;;;;;9.50;56.10;;;;;;4997624;28;19917;-58
2022/04/11 00:35:59;;;;;;;;;;;9.50;55.90;;;;;;4997516;28;19964;-55
2022/04/11 00:38:25;;;;;;;;;;;9.50;54.60;;;;;;4997804;28;19916;-56
2022/04/11 00:40:50;;;;;;;;;;;9.60;55.80;;;;;;4997383;28;20315;-55
2022/04/11 00:43:29;;;;;;;;;;;9.70;55.20;;;;;;4997316;28;20297;-55
2022/04/11 00:45:55;;;;;;;;;;;9.60;55.90;;;;;;4997422;28;19910;-55
2022/04/11 00:48:20;;;;;;;;;;;9.50;55.70;;;;;;4996103;28;19932;-55
2022/04/11 00:50:46;;;;;;;;;;;9.50;56.50;;;;;;4997365;28;20376;-55
2022/04/11 00:53:12;;;;;;;;;;;9.50;55.80;;;;;;4997130;28;19909;-56
2022/04/11 00:55:37;;;;;;;;;;;9.60;55.60;;;;;;4997085;28;19914;-56
2022/04/11 00:58:04;;;;;;;;;;;9.30;56.40;;;;;;4997019;28;19918;-56
2022/04/11 01:00:30;;;;;;;;;;;9.30;57.20;;;;;;4997262;28;19996;-56
2022/04/11 01:02:55;;;;;;;;;;;9.30;56.70;;;;;;4997332;28;20052;-56
2022/04/11 01:05:21;;;;;;;;;;;9.30;57.80;;;;;;4996824;28;19914;-56
2022/04/11 01:07:47;;;;;;;;;;;9.20;57.50;;;;;;4997067;28;19916;-56
2022/04/11 01:10:13;;;;;;;;;;;9.20;57.30;;;;;;4996971;28;19917;-57
2022/04/11 01:12:40;;;;;;;;;;;9.10;58.20;;;;;;4996604;28;19910;-55
2022/04/11 01:15:06;;;;;;;;;;;9.00;58.60;;;;;;4996837;28;19910;-56
2022/04/11 01:17:36;;;;;;;;;;;9.00;58.70;;;;;;4997002;28;19916;-56
2022/04/11 01:20:11;;;;;;;;;;;8.90;58.30;;;;;;4996782;28;20127;-56
2022/04/11 01:22:37;;;;;;;;;;;8.90;58.70;;;;;;4996383;28;20021;-56
2022/04/11 01:25:03;;;;;;;;;;;8.80;58.80;;;;;;4996553;28;19932;-56
2022/04/11 01:27:29;;;;;;;;;;;8.70;59.20;;;;;;4996234;28;19910;-56
2022/04/11 01:29:55;;;;;;;;;;;8.80;58.60;;;;;;4996689;28;19910;-56
2022/04/11 01:32:21;;;;;;;;;;;8.80;59.30;;;;;;4996581;28;19917;-56
2022/04/11 01:34:46;;;;;;;;;;;8.80;59.10;;;;;;4996546;28;20008;-56
2022/04/11 01:37:12;;;;;;;;;;;8.70;59.20;;;;;;4996674;28;20285;-56
2022/04/11 01:39:37;;;;;;;;;;;8.80;58.10;;;;;;4996256;28;19913;-57
2022/04/11 01:42:03;;;;;;;;;;;8.80;58.00;;;;;;4996287;28;20381;-57
2022/04/11 01:44:29;;;;;;;;;;;8.60;59.60;;;;;;4996145;28;20324;-56
2022/04/11 01:46:54;;;;;;;;;;;8.60;59.80;;;;;;4996326;28;19910;-56
2022/04/11 01:49:20;;;;;;;;;;;8.50;60.30;;;;;;4996367;28;20004;-56
2022/04/11 01:51:45;;;;;;;;;;;8.40;60.60;;;;;;4996027;28;20251;-57
2022/04/11 01:54:11;;;;;;;;;;;8.40;60.50;;;;;;4995937;28;19945;-55
2022/04/11 01:56:37;;;;;;;;;;;8.40;60.80;;;;;;4995936;28;19933;-55
2022/04/11 01:59:02;;;;;;;;;;;8.40;60.90;;;;;;4996038;28;19956;-56
2022/04/11 02:01:28;;;;;;;;;;;8.30;60.80;;;;;;4996034;28;19913;-56
2022/04/11 02:03:54;;;;;;;;;;;8.40;61.50;;;;;;4995747;28;19968;-55
2022/04/11 02:06:19;;;;;;;;;;;8.40;60.60;;;;;;4995919;28;19956;-56
2022/04/11 02:08:45;;;;;;;;;;;8.30;61.00;;;;;;4994592;28;19968;-55
2022/04/11 02:11:11;;;;;;;;;;;8.20;61.60;;;;;;4995571;28;19913;-54
2022/04/11 02:13:36;;;;;;;;;;;8.10;61.20;;;;;;4995650;28;19910;-54
2022/04/11 02:16:02;;;;;;;;;;;8.20;60.60;;;;;;4995742;28;20354;-55
2022/04/11 02:18:27;;;;;;;;;;;8.20;60.10;;;;;;4995741;28;19914;-57
2022/04/11 02:20:53;;;;;;;;;;;8.20;60.40;;;;;;4995706;28;19916;-55
2022/04/11 02:23:18;;;;;;;;;;;8.30;58.90;;;;;;4995456;28;19918;-56
2022/04/11 02:25:44;;;;;;;;;;;8.40;58.70;;;;;;4994313;28;19957;-55
2022/04/11 02:28:10;;;;;;;;;;;8.40;59.60;;;;;;4995766;28;19917;-55
2022/04/11 02:30:36;;;;;;;;;;;8.40;59.10;;;;;;4995805;28;19914;-56
2022/04/11 02:33:01;;;;;;;;;;;8.40;59.70;;;;;;4995433;28;20262;-56
2022/04/11 02:35:27;;;;;;;;;;;8.40;59.00;;;;;;4995517;28;19909;-55
2022/04/11 02:37:53;;;;;;;;;;;8.50;58.90;;;;;;4995294;28;19933;-55
2022/04/11 02:40:19;;;;;;;;;;;8.40;59.90;;;;;;4994047;28;19957;-56
2022/04/11 02:42:45;;;;;;;;;;;8.40;59.20;;;;;;4995072;28;19916;-55
2022/04/11 02:45:11;;;;;;;;;;;8.60;57.60;;;;;;4995466;28;19917;-56
2022/04/11 02:47:37;;;;;;;;;;;8.70;57.00;;;;;;4995480;28;19910;-54
2022/04/11 02:50:03;;;;;;;;;;;8.70;58.30;;;;;;4995912;28;19953;-55
2022/04/11 02:52:32;;;;;;;;;;;8.60;58.30;;;;;;4995977;28;20125;-56
2022/04/11 02:54:58;;;;;;;;;;;8.50;58.20;;;;;;4995883;28;20261;-54
2022/04/11 02:57:23;;;;;;;;;;;8.50;57.20;;;;;;4994876;28;19922;-56
2022/04/11 02:59:49;;;;;;;;;;;8.50;57.50;;;;;;4994929;28;19957;-57
2022/04/11 03:02:15;;;;;;;;;;;8.40;57.20;;;;;;4994935;28;19917;-56
2022/04/11 03:04:41;;;;;;;;;;;8.20;58.90;;;;;;4994759;28;20377;-56
2022/04/11 03:07:06;;;;;;;;;;;8.10;59.20;;;;;;4994966;28;19909;-56
2022/04/11 03:09:32;;;;;;;;;;;8.20;59.10;;;;;;4995197;28;19910;-57
2022/04/11 03:11:58;;;;;;;;;;;8.20;59.30;;;;;;4994606;28;19913;-57
2022/04/11 03:14:23;;;;;;;;;;;8.10;59.30;;;;;;4994863;28;20247;-56
2022/04/11 03:16:49;;;;;;;;;;;8.00;59.10;;;;;;4994667;28;19910;-57
2022/04/11 03:19:14;;;;;;;;;;;8.10;57.90;;;;;;4994636;28;19953;-56
2022/04/11 03:21:40;;;;;;;;;;;8.20;58.00;;;;;;4994788;28;19910;-56
2022/04/11 03:24:06;;;;;;;;;;;8.20;57.90;;;;;;4994393;28;19922;-56
2022/04/11 03:26:31;;;;;;;;;;;8.30;57.90;;;;;;4994525;28;19910;-57
2022/04/11 03:28:57;;;;;;;;;;;8.20;58.10;;;;;;4994615;28;20000;-56
2022/04/11 03:31:22;;;;;;;;;;;8.10;59.50;;;;;;4994443;28;20278;-56
2022/04/11 03:33:48;;;;;;;;;;;8.00;59.90;;;;;;4994615;28;19918;-56
2022/04/11 03:36:13;;;;;;;;;;;7.90;60.60;;;;;;4994541;28;19910;-56
2022/04/11 03:38:39;;;;;;;;;;;7.90;60.40;;;;;;4994480;28;19913;-56
2022/04/11 03:41:04;;;;;;;;;;;7.90;59.70;;;;;;4994498;28;19916;-56
2022/04/11 03:43:30;;;;;;;;;;;7.90;59.70;;;;;;4994369;28;20313;-56
2022/04/11 03:45:56;;;;;;;;;;;7.90;60.40;;;;;;4994534;28;20289;-56
2022/04/11 03:48:21;;;;;;;;;;;7.90;59.60;;;;;;4994341;28;20358;-56
2022/04/11 03:50:47;;;;;;;;;;;8.00;59.10;;;;;;4995807;28;20284;-57
2022/04/11 03:53:13;;;;;;;;;;;8.10;59.10;;;;;;4998617;28;19909;-56
2022/04/11 03:55:38;;;;;;;;;;;8.10;58.30;;;;;;4998365;28;19921;-56
2022/04/11 03:58:04;;;;;;;;;;;8.10;58.10;;;;;;4996983;28;19921;-56
2022/04/11 04:00:30;;;;;;;;;;;8.10;57.80;;;;;;4998530;28;19914;-56
2022/04/11 04:03:05;;;;;;;;;;;8.20;57.80;;;;;;4998073;28;19914;-54
2022/04/11 04:05:31;;;;;;;;;;;8.30;57.40;;;;;;4998343;28;20281;-54
2022/04/11 04:07:57;;;;;;;;;;;8.40;56.80;;;;;;4998309;28;19945;-56
2022/04/11 04:10:26;;;;;;;;;;;8.50;56.90;;;;;;4998090;28;20333;-56
2022/04/11 04:12:56;;;;;;;;;;;8.40;57.10;;;;;;4997831;28;19910;-56
2022/04/11 04:15:22;;;;;;;;;;;8.40;56.50;;;;;;4998096;28;19932;-56
2022/04/11 04:17:48;;;;;;;;;;;8.30;57.30;;;;;;4998152;28;20393;-56
2022/04/11 04:20:13;;;;;;;;;;;8.20;58.00;;;;;;4997775;28;19910;-56
2022/04/11 04:22:39;;;;;;;;;;;8.20;58.10;;;;;;4996193;28;19914;-56
2022/04/11 04:25:04;;;;;;;;;;;8.20;57.50;;;;;;4997970;28;19921;-56
2022/04/11 04:27:30;;;;;;;;;;;8.30;56.50;;;;;;4997983;28;19910;-56
2022/04/11 04:29:55;;;;;;;;;;;8.40;56.00;;;;;;4996373;28;20313;-56
2022/04/11 04:32:22;;;;;;;;;;;8.60;54.60;;;;;;4997658;28;19917;-55
2022/04/11 04:34:48;;;;;;;;;;;8.60;54.50;;;;;;4997690;28;19909;-57
2022/04/11 04:37:13;;;;;;;;;;;8.50;55.10;;;;;;4997753;28;19964;-56
2022/04/11 04:39:39;;;;;;;;;;;8.60;55.30;;;;;;4997733;28;20337;-56
2022/04/11 04:42:05;;;;;;;;;;;8.60;54.90;;;;;;4997404;28;19910;-56
2022/04/11 04:44:30;;;;;;;;;;;8.60;54.30;;;;;;4997430;28;20033;-55
2022/04/11 04:46:56;;;;;;;;;;;8.60;54.10;;;;;;4997398;28;19909;-55
2022/04/11 04:49:21;;;;;;;;;;;8.60;54.50;;;;;;4997158;28;19979;-55
2022/04/11 04:51:47;;;;;;;;;;;8.70;54.40;;;;;;4997068;28;19917;-55
2022/04/11 04:54:13;;;;;;;;;;;8.70;53.90;;;;;;4997083;28;19917;-56
2022/04/11 04:56:38;;;;;;;;;;;8.70;54.40;;;;;;4997117;28;20016;-54
2022/04/11 04:59:04;;;;;;;;;;;8.70;54.40;;;;;;4996820;28;19913;-56
2022/04/11 05:01:29;;;;;;;;;;;8.60;55.40;;;;;;4996349;28;19910;-56
2022/04/11 05:03:55;;;;;;;;;;;8.40;55.70;;;;;;4996886;28;19917;-56
2022/04/11 05:06:22;;;;;;;;;;;8.60;55.00;;;;;;4997176;28;20281;-56
2022/04/11 05:08:48;;;;;;;;;;;8.70;54.30;;;;;;4996643;28;19910;-56
2022/04/11 05:11:13;;;;;;;;;;;8.80;54.30;;;;;;4996869;28;20013;-56
2022/04/11 05:13:40;;;;;;;;;;;8.80;54.20;;;;;;4995607;28;19957;-56
2022/04/11 05:16:05;;;;;;;;;;;8.80;54.10;;;;;;4996950;28;19909;-55
2022/04/11 05:18:31;;;;;;;;;;;8.70;54.40;;;;;;4996816;28;19911;-55
2022/04/11 05:20:57;;;;;;;;;;;8.80;54.30;;;;;;4997031;28;19963;-55
2022/04/11 05:23:22;;;;;;;;;;;8.80;54.20;;;;;;4996575;28;20270;-56
2022/04/11 05:25:48;;;;;;;;;;;8.90;53.20;;;;;;4996702;28;19918;-56
2022/04/11 05:28:13;;;;;;;;;;;9.00;52.80;;;;;;4996626;28;19910;-55
2022/04/11 05:30:39;;;;;;;;;;;9.00;52.80;;;;;;4996749;28;19953;-56
2022/04/11 05:33:04;;;;;;;;;;;9.10;52.60;;;;;;4996502;28;19910;-56
2022/04/11 05:35:30;;;;;;;;;;;9.20;52.50;;;;;;4996480;28;19918;-57
2022/04/11 05:37:55;;;;;;;;;;;9.20;52.90;;;;;;4996548;28;19910;-55
2022/04/11 05:40:21;;;;;;;;;;;9.20;53.40;;;;;;4996575;28;19916;-56
2022/04/11 05:42:47;;;;;;;;;;;9.30;53.00;;;;;;4996229;28;19968;-56
2022/04/11 05:45:13;;;;;;;;;;;9.30;53.00;;;;;;4996482;28;20012;-56
2022/04/11 05:47:38;;;;;;;;;;;9.40;52.30;;;;;;4995078;28;19921;-56
2022/04/11 05:50:04;;;;;;;;;;;9.40;51.80;;;;;;4996490;28;19910;-57
2022/04/11 05:52:30;;;;;;;;;;;9.50;52.90;;;;;;4995846;28;19914;-57
2022/04/11 05:54:55;;;;;;;;;;;9.50;53.90;;;;;;4996065;28;19910;-55
2022/04/11 05:57:21;;;;;;;;;;;9.50;53.20;;;;;;4995865;28;20267;-55
2022/04/11 05:59:46;;;;;;;;;;;9.60;52.80;;;;;;4996011;28;19910;-57
2022/04/11 06:02:12;;;;;;;;;;;9.80;57.50;;;;;;4995770;28;19916;-64
2022/04/11 06:04:38;;;;;;;;;;;10.30;64.00;;;;;;4996257;28;20388;-59
2022/04/11 06:07:04;;;;;;;;;;;10.80;59.30;;;;;;4996166;28;20000;-55
2022/04/11 06:09:30;;;;;;;;;;;11.30;56.10;;;;;;4995843;28;19949;-56
2022/04/11 06:11:56;;;;;;;;;;;11.80;54.20;;;;;;4995072;28;19988;-54
2022/04/11 06:14:22;;;;;;;;;;;12.10;51.50;;;;;;4994795;28;19941;-53
2022/04/11 06:16:47;;;;;;;;;;;12.50;51.00;;;;;;4995574;28;19909;-63
2022/04/11 06:19:13;;;;;;;;;;;12.70;49.80;;;;;;4995343;28;19952;-55
2022/04/11 06:21:39;;;;;;;;;;;13.00;48.20;;;;;;4995453;28;19915;-54
2022/04/11 06:24:04;;;;;;;;;;;13.20;48.20;;;;;;4995200;28;19917;-55
2022/04/11 06:26:30;;;;;;;;;;;13.30;48.30;;;;;;4995303;28;19910;-58
2022/04/11 06:28:55;;;;;;;;;;;13.30;48.20;;;;;;4995279;28;19910;-57
2022/04/11 06:31:21;;;;;;;;;;;13.20;48.10;;;;;;4995148;28;19910;-58
2022/04/11 06:33:47;;;;;;;;;;;13.00;49.20;;;;;;4995069;28;19910;-64
2022/04/11 06:36:12;;;;;;;;;;;12.90;48.40;;;;;;4993878;28;20048;-57
2022/04/11 06:38:38;;;;;;;;;;;13.00;48.80;;;;;;4995305;28;20083;-62
2022/04/11 06:41:04;;;;;;;;;;;13.20;49.50;;;;;;4995241;28;19910;-57
2022/04/11 06:43:30;;;;;;;;;;;13.40;49.30;;;;;;4993526;28;19917;-57
2022/04/11 06:45:56;;;;;;;;;;;13.70;48.30;;;;;;4995149;28;19909;-56
2022/04/11 06:48:21;;;;;;;;;;;13.90;45.10;;;;;;4994587;28;19910;-57
2022/04/11 06:50:47;;;;;;;;;;;14.10;45.40;;;;;;4995009;28;19953;-58
2022/04/11 06:53:15;;;;;;;;;;;14.10;42.70;;;;;;4994975;28;19964;-57
2022/04/11 06:55:43;;;;;;;;;;;14.20;39.80;;;;;;4994819;28;19917;-57
2022/04/11 06:58:09;;;;;;;;;;;14.10;39.80;;;;;;4994783;28;20310;-58
2022/04/11 07:00:34;;;;;;;;;;;13.90;39.30;;;;;;4994906;28;19916;-57
2022/04/11 07:03:00;;;;;;;;;;;14.10;43.00;;;;;;4993187;28;19972;-57
2022/04/11 07:05:25;;;;;;;;;;;14.40;38.60;;;;;;4994834;28;19918;-56
2022/04/11 07:07:51;;;;;;;;;;;14.40;38.80;;;;;;4995821;28;19909;-58
2022/04/11 07:10:16;;;;;;;;;;;14.30;38.90;;;;;;4996137;28;20016;-56
2022/04/11 07:12:42;;;;;;;;;;;14.50;39.70;;;;;;4988244;28;20382;-57
2022/04/11 07:15:08;;;;;;;;;;;14.50;39.00;;;;;;4989161;28;19952;-57
2022/04/11 07:17:33;;;;;;;;;;;14.10;37.50;;;;;;4993367;28;19910;-58
2022/04/11 07:19:59;;;;;;;;;;;14.00;38.40;;;;;;4992787;28;19909;-57
2022/04/11 07:22:25;;;;;;;;;;;14.30;39.10;;;;;;4988191;28;19910;-59
2022/04/11 07:24:51;;;;;;;;;;;14.60;37.10;;;;;;4993325;28;19925;-56
2022/04/11 07:27:16;;;;;;;;;;;14.80;37.20;;;;;;4993966;28;20361;-57
2022/04/11 07:29:42;;;;;;;;;;;15.10;38.10;;;;;;4994034;28;19909;-55
2022/04/11 07:32:07;;;;;;;;;;;15.00;35.10;;;;;;4993866;28;19964;-59
2022/04/11 07:34:33;;;;;;;;;;;15.30;36.30;;;;;;4994785;28;20000;-61
2022/04/11 07:36:59;;;;;;;;;;;15.30;36.00;;;;;;4994677;28;19914;-59
2022/04/11 07:39:24;;;;;;;;;;;15.40;36.20;;;;;;4994726;28;20396;-57
2022/04/11 07:41:55;;;;;;;;;;;15.70;36.00;;;;;;4994498;28;19972;-57
2022/04/11 07:44:21;;;;;;;;;;;15.20;34.00;;;;;;4994100;28;19972;-57
2022/04/11 07:46:47;;;;;;;;;;;15.10;36.00;;;;;;4994431;28;20293;-58
2022/04/11 07:49:14;;;;;;;;;;;15.40;36.90;;;;;;4994269;28;19953;-56
2022/04/11 07:51:39;;;;;;;;;;;15.60;35.30;;;;;;4994193;28;19996;-58
2022/04/11 07:54:05;;;;;;;;;;;15.90;34.30;;;;;;4994288;28;19945;-57
2022/04/11 07:56:30;;;;;;;;;;;16.10;33.90;;;;;;4994212;28;19925;-57
2022/04/11 07:58:56;;;;;;;;;;;16.10;33.70;;;;;;4994309;28;19910;-57
2022/04/11 08:01:22;;;;;;;;;;;16.40;31.90;;;;;;4988034;28;20373;-57
2022/04/11 08:03:48;;;;;;;;;;;16.00;30.30;;;;;;4992116;28;19922;-59
2022/04/11 08:06:14;;;;;;;;;;;15.80;32.50;;;;;;4993519;28;19910;-59
2022/04/11 08:08:44;;;;;;;;;;;16.00;34.90;;;;;;4993408;28;19910;-59
2022/04/11 08:11:11;;;;;;;;;;;16.30;32.90;;;;;;4993703;28;19910;-59
2022/04/11 08:13:37;;;;;;;;;;;16.50;32.20;;;;;;4993914;28;19914;-59
2022/04/11 08:16:03;;;;;;;;;;;16.70;32.40;;;;;;4993919;28;19910;-60
2022/04/11 08:18:29;;;;;;;;;;;16.50;30.40;;;;;;4993819;28;19920;-61
2022/04/11 08:20:54;;;;;;;;;;;16.40;30.80;;;;;;4992866;28;19932;-59
2022/04/11 08:23:20;;;;;;;;;;;15.60;30.10;;;;;;4983214;28;19941;-59
2022/04/11 08:25:46;;;;;;;;;;;15.80;30.90;;;;;;4993296;28;20001;-56
2022/04/11 08:28:12;;;;;;;;;;;15.50;30.50;;;;;;4993316;28;20352;-58
2022/04/11 08:30:37;;;;;;;;;;;15.70;31.50;;;;;;4993356;28;19937;-58
2022/04/11 08:33:03;;;;;;;;;;;15.90;32.20;;;;;;4992664;28;19953;-57
2022/04/11 08:35:28;;;;;;;;;;;15.90;31.30;;;;;;4992952;28;19952;-57
2022/04/11 08:37:54;;;;;;;;;;;15.90;31.40;;;;;;4996472;28;19957;-57
2022/04/11 08:40:20;;;;;;;;;;;15.60;30.70;;;;;;4997326;28;19957;-57
2022/04/11 08:42:46;;;;;;;;;;;15.50;32.00;;;;;;4997478;28;19964;-60
2022/04/11 08:45:13;;;;;;;;;;;15.70;31.80;;;;;;4997511;28;19921;-61
2022/04/11 08:47:39;;;;;;;;;;;15.80;31.70;;;;;;4997409;28;19920;-62
2022/04/11 08:50:04;;;;;;;;;;;16.10;33.30;;;;;;4997265;28;19910;-61
2022/04/11 08:52:31;;;;;;;;;;;16.20;32.30;;;;;;4997233;28;19917;-57
2022/04/11 08:54:57;;;;;;;;;;;15.80;31.20;;;;;;4997240;28;19957;-57
2022/04/11 08:57:22;;;;;;;;;;;15.40;31.80;;;;;;4996851;28;19998;-64
2022/04/11 08:59:48;;;;;;;;;;;15.40;32.60;;;;;;4996828;28;20383;-61
2022/04/11 09:02:14;;;;;;;;;;;15.40;33.10;;;;;;4997085;28;19910;-66
2022/04/11 09:04:50;;;;;;;;;;;15.50;32.50;;;;;;4996668;28;19918;-59
2022/04/11 09:07:15;;;;;;;;;;;15.60;33.70;;;;;;4996478;28;19910;-61
2022/04/11 09:09:41;;;;;;;;;;;15.90;34.60;;;;;;4996349;28;19917;-61
2022/04/11 09:12:13;;;;;;;;;;;16.10;31.60;;;;;;4996109;28;19987;-58
2022/04/11 09:14:39;;;;;;;;;;;16.20;32.80;;;;;;4996201;28;19910;-57
2022/04/11 09:17:04;;;;;;;;;;;16.10;29.40;;;;;;4996349;28;20382;-57
2022/04/11 09:19:31;;;;;;;;;;;16.10;30.80;;;;;;4994872;28;19994;-57
2022/04/11 09:21:57;;;;;;;;;;;16.20;31.40;;;;;;4996083;28;19914;-57
2022/04/11 09:24:26;;;;;;;;;;;16.40;31.90;;;;;;4994762;28;20000;-57
2022/04/11 09:26:54;;;;;;;;;;;16.10;30.20;;;;;;4995863;28;19910;-58
2022/04/11 09:29:20;;;;;;;;;;;15.60;30.30;;;;;;4995960;28;20234;-57
2022/04/11 09:31:46;;;;;;;;;;;15.40;31.40;;;;;;4995889;28;20353;-57
2022/04/11 09:34:14;;;;;;;;;;;15.20;31.20;;;;;;4996001;28;20353;-57
2022/04/11 09:36:44;;;;;;;;;;;15.00;31.40;;;;;;4995781;28;20269;-57
2022/04/11 09:39:10;;;;;;;;;;;15.20;33.10;;;;;;4995353;28;19909;-61
2022/04/11 09:41:40;;;;;;;;;;;15.50;33.50;;;;;;4995605;28;19917;-59
2022/04/11 09:44:21;;;;;;;;;;;15.80;32.30;;;;;;4996080;28;20285;-58
2022/04/11 09:46:47;;;;;;;;;;;16.00;31.80;;;;;;4995867;28;19917;-58
2022/04/11 09:49:12;;;;;;;;;;;15.60;29.00;;;;;;4995762;28;19910;-60
2022/04/11 09:51:58;;;;;;;;;;;15.60;30.40;;;;;;4995627;28;19913;-57
2022/04/11 09:54:24;;;;;;;;;;;15.80;30.70;;;;;;4984886;28;19917;-58
2022/04/11 09:56:50;;;;;;;;;;;15.90;29.50;;;;;;4995205;28;19928;-56
2022/04/11 09:59:16;;;;;;;;;;;16.10;28.80;;;;;;4995854;28;19910;-57
2022/04/11 10:01:44;;;;;;;;;;;15.80;27.60;;;;;;4995643;28;19917;-56
2022/04/11 10:04:10;;;;;;;;;;;15.70;29.40;;;;;;4995368;28;20384;-58
2022/04/11 10:06:36;;;;;;;;;;;15.60;28.20;;;;;;4995519;28;19968;-60
2022/04/11 10:09:02;;;;;;;;;;;15.80;30.00;;;;;;4995447;28;19910;-58
2022/04/11 10:11:28;;;;;;;;;;;16.10;30.00;;;;;;4996191;28;19910;-57
2022/04/11 10:13:54;;;;;;;;;;;15.60;28.40;;;;;;4995832;28;20361;-57
2022/04/11 10:16:20;;;;;;;;;;;15.60;29.60;;;;;;4995721;28;19933;-57
2022/04/11 10:18:46;;;;;;;;;;;15.60;29.90;;;;;;4995732;28;20366;-57
2022/04/11 10:21:13;;;;;;;;;;;15.80;29.80;;;;;;4995440;28;19910;-57
2022/04/11 10:23:57;;;;;;;;;;;15.70;28.60;;;;;;4994702;28;19980;-58
2022/04/11 10:26:25;;;;;;;;;;;15.90;29.50;;;;;;4994571;28;19937;-57
2022/04/11 10:28:51;;;;;;;;;;;16.30;31.00;;;;;;4994763;28;19910;-58
2022/04/11 10:31:17;;;;;;;;;;;16.60;30.00;;;;;;4994661;28;19910;-56
2022/04/11 10:33:50;;;;;;;;;;;16.20;30.10;;;;;;4994396;28;19910;-59
2022/04/11 10:36:34;;;;;;;;;;;16.20;30.30;;;;;;4994362;28;19910;-57
2022/04/11 10:39:15;;;;;;;;;;;16.10;30.60;;;;;;4994341;28;20365;-58
2022/04/11 10:41:58;;;;;;;;;;;15.40;32.40;;;;;;4994251;28;19910;-58
2022/04/11 10:44:43;;;;;;;;;;;15.30;32.70;;;;;;4994424;28;19924;-58
2022/04/11 10:47:10;;;;;;;;;;;15.40;34.60;;;;;;4993598;28;20324;-58
2022/04/11 10:49:44;;;;;;;;;;;15.70;33.60;;;;;;4994505;28;19909;-57
2022/04/11 10:52:31;;;;;;;;;;;15.90;35.90;;;;;;4994094;28;19952;-58
2022/04/11 10:55:17;;;;;;;;;;;15.90;36.60;;;;;;4994520;28;19913;-58
2022/04/11 10:57:42;;;;;;;;;;;15.80;34.50;;;;;;4994065;28;20016;-58
2022/04/11 11:00:11;;;;;;;;;;;15.90;35.30;;;;;;4993434;28;19964;-58
2022/04/11 11:02:52;;;;;;;;;;;15.40;34.00;;;;;;4993812;28;20282;-60
2022/04/11 11:05:28;;;;;;;;;;;15.30;36.50;;;;;;4994444;28;19969;-57
2022/04/11 11:08:09;;;;;;;;;;;15.40;35.00;;;;;;4994644;28;19910;-57
2022/04/11 11:10:44;;;;;;;;;;;15.10;35.00;;;;;;4994207;28;20048;-56
2022/04/11 11:13:32;;;;;;;;;;;15.50;36.40;;;;;;4993893;28;20311;-57
2022/04/11 11:15:59;;;;;;;;;;;15.70;34.60;;;;;;4994147;28;20427;-57
2022/04/11 11:18:25;;;;;;;;;;;15.70;33.60;;;;;;4994302;28;19910;-58
2022/04/11 11:20:54;;;;;;;;;;;15.90;35.00;;;;;;4993874;28;19968;-57
2022/04/11 11:23:28;;;;;;;;;;;15.60;34.70;;;;;;4993702;28;19914;-58
2022/04/11 11:25:54;;;;;;;;;;;15.30;35.30;;;;;;4993463;28;19918;-62
2022/04/11 11:28:20;;;;;;;;;;;15.00;36.60;;;;;;4993386;28;19917;-59
2022/04/11 11:30:46;;;;;;;;;;;15.30;37.30;;;;;;4993849;28;20305;-57
2022/04/11 11:33:13;;;;;;;;;;;15.40;34.40;;;;;;4993502;28;19913;-56
2022/04/11 11:35:51;;;;;;;;;;;15.70;34.90;;;;;;4993485;28;20071;-57
2022/04/11 11:38:21;;;;;;;;;;;15.30;34.80;;;;;;4993812;28;19914;-57
2022/04/11 11:40:51;;;;;;;;;;;15.10;37.00;;;;;;4993468;28;19910;-59
2022/04/11 11:43:17;;;;;;;;;;;15.30;37.50;;;;;;4993669;28;19913;-59
2022/04/11 11:45:43;;;;;;;;;;;14.80;38.20;;;;;;4993531;28;19914;-64
2022/04/11 11:48:38;;;;;;;;;;;14.80;40.20;;;;;;4981660;28;20425;-63
2022/04/11 11:51:04;;;;;;;;;;;15.20;42.00;;;;;;4959755;28;20380;-64
2022/04/11 11:53:43;;;;;;;;;;;15.10;41.10;;;;;;4978332;28;19914;-61
2022/04/11 11:56:09;;;;;;;;;;;14.90;40.50;;;;;;4981820;28;19980;-62
2022/04/11 11:58:36;;;;;;;;;;;15.20;42.00;;;;;;4978199;28;20004;-60
2022/04/11 12:01:03;;;;;;;;;;;15.50;42.80;;;;;;4975201;28;19937;-60
2022/04/11 12:06:13;;;;;;;;;;;15.50;43.80;;;;;;4974122;28;20026;-60
2022/04/11 12:08:39;;;;;;;;;;;15.20;44.70;;;;;;4973533;28;19992;-59
2022/04/11 12:11:04;;;;;;;;;;;15.40;45.60;;;;;;4976021;28;20432;-58
2022/04/11 12:13:31;;;;;;;;;;;15.50;44.50;;;;;;4995880;28;19914;-57
2022/04/11 12:16:10;;;;;;;;;;;15.10;45.40;;;;;;4996039;28;19953;-59
2022/04/11 12:18:48;;;;;;;;;;;15.00;46.60;;;;;;4993418;28;19910;-58
2022/04/11 12:21:13;;;;;;;;;;;14.90;48.00;;;;;;4995817;28;19989;-58
2022/04/11 12:23:43;;;;;;;;;;;15.10;47.70;;;;;;4996518;28;20005;-60
2022/04/11 12:26:08;;;;;;;;;;;15.60;46.80;;;;;;4996499;28;19972;-60
2022/04/11 12:28:34;;;;;;;;;;;15.60;46.50;;;;;;4996363;28;19909;-60
2022/04/11 12:31:03;;;;;;;;;;;15.30;47.60;;;;;;4996308;28;19914;-58
2022/04/11 12:33:28;;;;;;;;;;;15.50;47.60;;;;;;4994950;28;20040;-66
2022/04/11 12:36:13;;;;;;;;;;;15.30;47.90;;;;;;4996339;28;19914;-61
2022/04/11 12:38:44;;;;;;;;;;;15.40;48.10;;;;;;4996059;28;19910;-63
2022/04/11 12:41:27;;;;;;;;;;;15.80;48.00;;;;;;4996361;28;19917;-57
2022/04/11 12:44:02;;;;;;;;;;;15.60;47.80;;;;;;4996000;28;20310;-56
2022/04/11 12:46:28;;;;;;;;;;;15.40;49.40;;;;;;4995923;28;20318;-55
2022/04/11 12:48:55;;;;;;;;;;;15.30;48.40;;;;;;4995591;28;19957;-58
2022/04/11 12:51:20;;;;;;;;;;;15.60;49.50;;;;;;4995640;28;19910;-64
2022/04/11 12:53:46;;;;;;;;;;;15.40;48.40;;;;;;4995742;28;20346;-60
2022/04/11 12:56:11;;;;;;;;;;;15.40;49.60;;;;;;4995688;28;19918;-64
2022/04/11 12:58:37;;;;;;;;;;;15.20;50.40;;;;;;4995718;28;20022;-59
2022/04/11 13:01:02;;;;;;;;;;;14.90;51.40;;;;;;4995631;28;20481;-68
2022/04/11 13:03:30;;;;;;;;;;;14.80;50.40;;;;;;4995520;28;19921;-69
2022/04/11 13:05:57;;;;;;;;;;;14.60;50.90;;;;;;4995560;28;19909;-65
2022/04/11 13:08:26;;;;;;;;;;;14.50;52.10;;;;;;4994270;28;19910;-60
2022/04/11 13:10:52;;;;;;;;;;;14.60;51.60;;;;;;4995839;28;20293;-57
2022/04/11 13:13:17;;;;;;;;;;;15.10;51.20;;;;;;4995365;28;19937;-58
2022/04/11 13:18:27;;;;;;;;;;;14.90;52.10;;;;;;4995586;28;20027;-59
2022/04/11 13:20:53;;;;;;;;;;;15.00;52.60;;;;;;4995764;28;19910;-57
2022/04/11 13:23:19;;;;;;;;;;;15.30;50.50;;;;;;4986529;28;20016;-65
2022/04/11 13:25:45;;;;;;;;;;;15.20;49.70;;;;;;4995407;28;19980;-61
2022/04/11 13:28:10;;;;;;;;;;;15.10;51.20;;;;;;4995219;28;19964;-57
2022/04/11 13:30:36;;;;;;;;;;;15.20;51.80;;;;;;4994972;28;19910;-62
2022/04/11 13:33:02;;;;;;;;;;;15.20;48.20;;;;;;4994636;28;20350;-65
2022/04/11 13:35:28;;;;;;;;;;;15.60;48.10;;;;;;4985619;28;20377;-57
2022/04/11 13:37:53;;;;;;;;;;;15.60;48.30;;;;;;4985243;28;19910;-62
2022/04/11 13:40:19;;;;;;;;;;;15.40;51.30;;;;;;4982063;28;19914;-58
2022/04/11 13:42:44;;;;;;;;;;;15.70;50.30;;;;;;4982448;28;19932;-57
2022/04/11 13:45:10;;;;;;;;;;;15.70;49.10;;;;;;4987841;28;20072;-65
2022/04/11 13:47:36;;;;;;;;;;;15.70;49.30;;;;;;5009004;28;19984;-64
2022/04/11 13:50:02;;;;;;;;;;;15.70;49.90;;;;;;4995039;28;20309;-66
2022/04/11 13:52:27;;;;;;;;;;;16.00;49.10;;;;;;4994718;28;19967;-66
2022/04/11 13:54:53;;;;;;;;;;;16.00;46.30;;;;;;4994283;28;20017;-60
2022/04/11 13:57:19;;;;;;;;;;;16.20;48.40;;;;;;4994707;28;19925;-60
2022/04/11 13:59:44;;;;;;;;;;;15.70;50.90;;;;;;4994786;28;19956;-61
2022/04/11 14:02:10;;;;;;;;;;;15.50;50.60;;;;;;4994434;28;19945;-63
2022/04/11 14:04:36;;;;;;;;;;;15.50;52.00;;;;;;4991987;28;19925;-60
2022/04/11 14:07:02;;;;;;;;;;;15.70;49.90;;;;;;4994489;28;19910;-59
2022/04/11 14:09:27;;;;;;;;;;;15.40;48.10;;;;;;4984083;28;20277;-58
2022/04/11 14:11:53;;;;;;;;;;;15.40;50.40;;;;;;4985498;28;19909;-58
2022/04/11 14:14:18;;;;;;;;;;;15.60;50.20;;;;;;4983735;28;20004;-63
2022/04/11 14:16:44;;;;;;;;;;;15.80;49.70;;;;;;4984309;28;19910;-65
2022/04/11 14:19:10;;;;;;;;;;;16.00;50.60;;;;;;4992757;28;19913;-62
2022/04/11 14:21:35;;;;;;;;;;;16.00;51.20;;;;;;5004809;28;19917;-58
2022/04/11 14:24:01;;;;;;;;;;;16.00;52.20;;;;;;5000182;28;19918;-68
2022/04/11 14:26:26;;;;;;;;;;;15.10;51.10;;;;;;5004808;28;19910;-65